createdAt,value
2023-12-01T00:00:41.979Z,99443.22
2023-12-01T00:03:09.748Z,99440.97
2023-12-01T00:05:37.456Z,99440.03
2023-12-01T00:08:05.357Z,99326.00
2023-12-01T00:10:33.040Z,99448.53
2023-12-01T00:13:00.755Z,99449.59
2023-12-01T00:15:29.868Z,99447.03
2023-12-01T00:17:57.662Z,99454.91
2023-12-01T00:20:25.435Z,99353.47
2023-12-01T00:22:53.878Z,99452.03
2023-12-01T00:25:21.620Z,99447.66
2023-12-01T00:27:49.328Z,99453.03
2023-12-01T00:30:17.185Z,99446.88
2023-12-01T00:32:46.393Z,99451.19
2023-12-01T00:35:14.201Z,99447.81
2023-12-01T00:37:41.880Z,99457.63
2023-12-01T00:40:11.345Z,99460.16
2023-12-01T00:42:39.182Z,99461.16
2023-12-01T00:45:07.600Z,99466.16
2023-12-01T00:47:35.375Z,99289.72
2023-12-01T00:50:05.059Z,99479.63
2023-12-01T00:52:34.165Z,99481.50
2023-12-01T00:55:02.953Z,99483.47
2023-12-01T00:57:30.706Z,99486.81
2023-12-01T00:59:58.429Z,99482.47
2023-12-01T01:02:26.114Z,99483.41
2023-12-01T01:04:53.915Z,99487.66
2023-12-01T01:07:23.015Z,99484.00
2023-12-01T01:09:50.731Z,99486.75
2023-12-01T01:12:18.410Z,99494.16
2023-12-01T01:14:46.121Z,99481.81
2023-12-01T01:17:13.826Z,99491.91
2023-12-01T01:19:41.516Z,99493.56
2023-12-01T01:22:09.233Z,99487.91
2023-12-01T01:24:38.383Z,99493.78
2023-12-01T01:27:06.401Z,99492.56
2023-12-01T01:29:34.160Z,99435.97
2023-12-01T01:32:01.870Z,99496.81
2023-12-01T01:34:29.551Z,99496.81
2023-12-01T01:36:57.389Z,99497.09
2023-12-01T01:39:25.136Z,99496.94
2023-12-01T01:41:54.221Z,99504.91
2023-12-01T01:44:21.903Z,99501.31
2023-12-01T01:46:51.625Z,99502.25
2023-12-01T01:49:20.020Z,99499.72
2023-12-01T01:51:48.136Z,99505.63
2023-12-01T01:54:16.650Z,99503.81
2023-12-01T01:56:46.305Z,99504.63
2023-12-01T01:59:15.406Z,99506.22
2023-12-01T02:01:43.289Z,99495.22
2023-12-01T02:04:11.262Z,99363.72
2023-12-01T02:06:39.021Z,99508.34
2023-12-01T02:09:07.460Z,99504.69
2023-12-01T02:11:35.347Z,99500.31
2023-12-01T02:14:03.369Z,99502.19
2023-12-01T02:16:32.449Z,99510.34
2023-12-01T02:19:00.450Z,99515.56
2023-12-01T02:21:30.491Z,99509.41
2023-12-01T02:24:00.726Z,99504.09
2023-12-01T02:26:28.416Z,99498.81
2023-12-01T02:28:56.044Z,99500.19
2023-12-01T02:31:23.775Z,99507.75
2023-12-01T02:33:55.121Z,99506.69
2023-12-01T02:36:22.908Z,99511.91
2023-12-01T02:38:50.571Z,99482.69
2023-12-01T02:41:19.821Z,99513.84
2023-12-01T02:43:47.835Z,99517.22
2023-12-01T02:46:15.591Z,99520.81
2023-12-01T02:48:43.557Z,99520.59
2023-12-01T02:51:11.282Z,99516.16
2023-12-01T02:53:38.922Z,99517.94
2023-12-01T02:56:07.306Z,99513.25
2023-12-01T02:58:36.365Z,99518.75
2023-12-01T03:01:04.547Z,99517.78
2023-12-01T03:03:32.360Z,99514.91
2023-12-01T03:06:00.031Z,99518.56
2023-12-01T03:08:27.712Z,99521.78
2023-12-01T03:10:56.440Z,99522.00
2023-12-01T03:13:25.124Z,99516.50
2023-12-01T03:15:54.312Z,99505.09
2023-12-01T03:18:24.034Z,99512.19
2023-12-01T03:20:52.137Z,99513.91
2023-12-01T03:23:19.821Z,99512.91
2023-12-01T03:25:47.502Z,99527.09
2023-12-01T03:28:16.067Z,99515.56
2023-12-01T03:30:44.152Z,99522.00
2023-12-01T03:33:13.727Z,99521.94
2023-12-01T03:35:41.536Z,99524.13
2023-12-01T03:38:09.359Z,99519.75
2023-12-01T03:40:37.021Z,99395.28
2023-12-01T03:43:04.845Z,99527.75
2023-12-01T03:45:32.508Z,99523.59
2023-12-01T03:48:00.262Z,99562.31
2023-12-01T03:50:29.860Z,99528.25
2023-12-01T03:52:57.685Z,99522.94
2023-12-01T03:55:25.474Z,99538.84
2023-12-01T03:57:53.144Z,99536.06
2023-12-01T04:00:23.015Z,99539.50
2023-12-01T04:02:51.664Z,99539.31
2023-12-01T04:05:22.587Z,99544.16
2023-12-01T04:07:56.105Z,99543.09
2023-12-01T04:10:26.099Z,99551.13
2023-12-01T04:12:54.293Z,99550.25
2023-12-01T04:15:26.605Z,99554.34
2023-12-01T04:17:55.044Z,99565.56
2023-12-01T04:20:23.757Z,99564.88
2023-12-01T04:22:55.234Z,99567.16
2023-12-01T04:25:23.061Z,99526.84
2023-12-01T04:27:52.241Z,99487.84
2023-12-01T04:30:21.812Z,99563.75
2023-12-01T04:32:54.526Z,99572.72
2023-12-01T04:35:23.326Z,99570.06
2023-12-01T04:37:51.429Z,99577.09
2023-12-01T04:40:20.626Z,99577.88
2023-12-01T04:42:50.779Z,99580.53
2023-12-01T04:45:19.878Z,99574.78
2023-12-01T04:47:51.464Z,99570.69
2023-12-01T04:50:20.760Z,99573.06
2023-12-01T04:52:50.209Z,99573.88
2023-12-01T04:55:20.287Z,99575.56
2023-12-01T04:57:49.623Z,99574.88
2023-12-01T05:00:22.130Z,99586.81
2023-12-01T05:02:52.377Z,99583.59
2023-12-01T05:05:21.742Z,99589.09
2023-12-01T05:07:52.802Z,99591.63
2023-12-01T05:10:23.375Z,99592.56
2023-12-01T05:12:52.660Z,99584.66
2023-12-01T05:15:21.791Z,99587.97
2023-12-01T05:17:50.816Z,99602.91
2023-12-01T05:20:20.339Z,99595.19
2023-12-01T05:22:49.460Z,99551.75
2023-12-01T05:25:19.338Z,99609.09
2023-12-01T05:27:50.272Z,99615.53
2023-12-01T05:30:19.930Z,99608.44
2023-12-01T05:32:48.977Z,99615.31
2023-12-01T05:35:17.569Z,99620.28
2023-12-01T05:37:49.059Z,99619.78
2023-12-01T05:40:18.078Z,99623.06
2023-12-01T05:42:48.360Z,99626.78
2023-12-01T05:45:17.577Z,99612.88
2023-12-01T05:47:46.484Z,99627.06
2023-12-01T05:50:15.440Z,99560.91
2023-12-01T05:52:44.686Z,99592.94
2023-12-01T05:55:19.133Z,99613.09
2023-12-01T05:57:50.288Z,99631.56
2023-12-01T06:00:19.603Z,99630.09
2023-12-01T06:02:48.202Z,99615.78
2023-12-01T06:05:16.749Z,99610.50
2023-12-01T06:07:50.926Z,99555.47
2023-12-01T06:10:19.451Z,99641.50
2023-12-01T06:12:49.329Z,99651.34
2023-12-01T06:15:19.444Z,99644.47
2023-12-01T06:17:49.094Z,99574.50
2023-12-01T06:20:21.554Z,99645.59
2023-12-01T06:22:50.518Z,99651.63
2023-12-01T06:25:19.971Z,99660.81
2023-12-01T06:27:49.299Z,99664.22
2023-12-01T06:30:17.553Z,99665.06
2023-12-01T06:32:47.061Z,99667.41
2023-12-01T06:35:16.017Z,99629.78
2023-12-01T06:37:46.689Z,99688.88
2023-12-01T06:40:17.646Z,99684.66
2023-12-01T06:42:46.848Z,99688.97
2023-12-01T06:45:17.362Z,99690.88
2023-12-01T06:47:47.459Z,99687.16
2023-12-01T06:50:16.424Z,99684.19
2023-12-01T06:52:45.247Z,99691.19
2023-12-01T06:55:13.648Z,99699.75
2023-12-01T06:57:43.753Z,99698.16
2023-12-01T07:00:31.041Z,99698.16
2023-12-01T07:03:02.365Z,99708.63
2023-12-01T07:05:32.739Z,99707.66
2023-12-01T07:08:01.537Z,99706.97
2023-12-01T07:10:30.059Z,99713.19
2023-12-01T07:12:58.118Z,99715.84
2023-12-01T07:15:26.604Z,99686.22
2023-12-01T07:17:55.701Z,99717.44
2023-12-01T07:20:25.822Z,99718.97
2023-12-01T07:22:55.357Z,99728.16
2023-12-01T07:25:25.413Z,99645.56
2023-12-01T07:27:56.342Z,99725.22
2023-12-01T07:30:24.775Z,99730.50
2023-12-01T07:32:52.873Z,99731.56
2023-12-01T07:35:20.595Z,99731.66
2023-12-01T07:37:52.904Z,99703.41
2023-12-01T07:40:21.667Z,99720.72
2023-12-01T07:42:50.157Z,99729.13
2023-12-01T07:45:19.392Z,99732.78
2023-12-01T07:47:47.598Z,99726.31
2023-12-01T07:50:18.676Z,99732.81
2023-12-01T07:52:46.794Z,99731.84
2023-12-01T07:55:16.293Z,99729.19
2023-12-01T07:57:45.125Z,99725.63
2023-12-01T08:00:16.118Z,99727.28
2023-12-01T08:02:44.930Z,99732.47
2023-12-01T08:05:16.439Z,99722.69
2023-12-01T08:07:46.633Z,99727.16
2023-12-01T08:10:18.066Z,99724.16
2023-12-01T08:12:47.732Z,99690.78
2023-12-01T08:15:15.765Z,99733.44
2023-12-01T08:17:46.840Z,99735.94
2023-12-01T08:20:16.023Z,99740.19
2023-12-01T08:22:47.255Z,99733.41
2023-12-01T08:25:16.997Z,99737.88
2023-12-01T08:27:44.685Z,99745.72
2023-12-01T08:30:18.859Z,99725.97
2023-12-01T08:32:48.409Z,99749.47
2023-12-01T08:35:16.779Z,99745.34
2023-12-01T08:37:44.692Z,99748.66
2023-12-01T08:40:14.639Z,99750.59
2023-12-01T08:42:44.951Z,99752.28
2023-12-01T08:45:12.989Z,99758.44
2023-12-01T08:47:41.685Z,99772.66
2023-12-01T08:50:11.957Z,99754.63
2023-12-01T08:52:40.403Z,99772.19
2023-12-01T08:55:09.145Z,99738.63
2023-12-01T08:57:36.999Z,99769.44
2023-12-01T09:00:07.891Z,99772.06
2023-12-01T09:02:35.846Z,99778.34
2023-12-01T09:05:05.417Z,99785.38
2023-12-01T09:07:33.687Z,99777.75
2023-12-01T09:10:01.483Z,99783.84
2023-12-01T09:12:29.350Z,99785.44
2023-12-01T09:14:57.298Z,99784.81
2023-12-01T09:17:26.531Z,99784.88
2023-12-01T09:19:54.320Z,99781.31
2023-12-01T09:22:22.110Z,99708.69
2023-12-01T09:24:50.735Z,99789.09
2023-12-01T09:27:18.625Z,99785.69
2023-12-01T09:29:46.494Z,99791.84
2023-12-01T09:32:14.652Z,99785.69
2023-12-01T09:34:43.743Z,99794.56
2023-12-01T09:37:11.462Z,99801.00
2023-12-01T09:39:39.147Z,99808.72
2023-12-01T09:42:08.465Z,99737.41
2023-12-01T09:44:37.196Z,99813.22
2023-12-01T09:47:06.352Z,99816.03
2023-12-01T09:49:35.808Z,99819.66
2023-12-01T09:52:05.813Z,99820.47
2023-12-01T09:54:33.687Z,99821.50
2023-12-01T09:57:06.469Z,99824.16
2023-12-01T09:59:37.292Z,99757.03
2023-12-01T10:02:05.767Z,99822.41
2023-12-01T10:04:35.082Z,99822.31
2023-12-01T10:07:05.261Z,99814.47
2023-12-01T10:09:33.977Z,99821.38
2023-12-01T10:12:09.002Z,99819.59
2023-12-01T10:14:37.096Z,99818.47
2023-12-01T10:17:05.841Z,99820.06
2023-12-01T10:19:34.487Z,99827.03
2023-12-01T10:22:02.688Z,99820.19
2023-12-01T10:24:32.400Z,99814.09
2023-12-01T10:27:03.994Z,99819.09
2023-12-01T10:29:33.099Z,99812.00
2023-12-01T10:32:02.128Z,99805.66
2023-12-01T10:34:30.067Z,99810.09
2023-12-01T10:36:59.114Z,99805.44
2023-12-01T10:39:28.543Z,99803.56
2023-12-01T10:42:01.512Z,99804.50
2023-12-01T10:44:32.259Z,99800.94
2023-12-01T10:47:00.897Z,99804.50
2023-12-01T10:49:28.962Z,99800.13
2023-12-01T10:51:57.968Z,99797.19
2023-12-01T10:54:28.705Z,99799.19
2023-12-01T10:57:13.117Z,99800.06
2023-12-01T10:59:45.512Z,99804.63
2023-12-01T11:02:16.453Z,99787.16
2023-12-01T11:04:46.068Z,99730.34
2023-12-01T11:07:28.717Z,99792.75
2023-12-01T11:10:08.342Z,99789.19
2023-12-01T11:12:51.660Z,99786.53
2023-12-01T11:15:24.062Z,99784.81
2023-12-01T11:17:52.614Z,99790.56
2023-12-01T11:20:38.630Z,99787.75
2023-12-01T11:23:07.855Z,99753.03
2023-12-01T11:25:43.127Z,99768.56
2023-12-01T11:28:28.928Z,99785.56
2023-12-01T11:31:01.544Z,99793.56
2023-12-01T11:33:34.741Z,99784.56
2023-12-01T11:36:25.431Z,99787.16
2023-12-01T11:39:19.642Z,99787.09
2023-12-01T11:41:57.299Z,99788.44
2023-12-01T11:44:30.610Z,99790.75
2023-12-01T11:47:01.677Z,99735.53
2023-12-01T11:49:33.033Z,99794.94
2023-12-01T11:52:02.185Z,99790.06
2023-12-01T11:54:33.969Z,99784.75
2023-12-01T11:57:03.314Z,99790.06
2023-12-01T11:59:32.421Z,99795.69
2023-12-01T12:02:00.271Z,99794.50
2023-12-01T12:04:28.789Z,99796.63
2023-12-01T12:06:57.150Z,99796.34
2023-12-01T12:09:27.000Z,99798.00
2023-12-01T12:11:56.567Z,99795.13
2023-12-01T12:14:25.340Z,99792.72
2023-12-01T12:16:54.922Z,99779.47
2023-12-01T12:19:23.507Z,99790.94
2023-12-01T12:21:51.572Z,99792.53
2023-12-01T12:24:20.262Z,99795.19
2023-12-01T12:26:57.346Z,99794.56
2023-12-01T12:29:26.173Z,99801.59
2023-12-01T12:31:55.500Z,99804.00
2023-12-01T12:34:25.491Z,99812.25
2023-12-01T12:36:53.882Z,99810.22
2023-12-01T12:39:25.469Z,99748.38
2023-12-01T12:41:58.706Z,99809.19
2023-12-01T12:44:26.581Z,99812.63
2023-12-01T12:47:03.412Z,99811.72
2023-12-01T12:49:32.497Z,99815.41
2023-12-01T12:52:00.960Z,99827.66
2023-12-01T12:54:29.015Z,99825.44
2023-12-01T12:56:56.849Z,99830.78
2023-12-01T12:59:25.014Z,99816.63
2023-12-01T13:01:52.983Z,99827.22
2023-12-01T13:04:22.519Z,99821.31
2023-12-01T13:06:50.886Z,99840.66
2023-12-01T13:09:19.354Z,99825.63
2023-12-01T13:11:47.868Z,99820.19
2023-12-01T13:14:16.394Z,99818.91
2023-12-01T13:16:54.636Z,99826.84
2023-12-01T13:19:26.391Z,99828.53
2023-12-01T13:21:56.397Z,99824.94
2023-12-01T13:24:25.368Z,99814.34
2023-12-01T13:26:53.381Z,99821.91
2023-12-01T13:29:21.134Z,99825.63
2023-12-01T13:31:49.694Z,99831.22
2023-12-01T13:34:18.547Z,99829.72
2023-12-01T13:36:49.469Z,99835.66
2023-12-01T13:39:18.109Z,99839.56
2023-12-01T13:41:46.613Z,99839.16
2023-12-01T13:44:15.156Z,99840.28
2023-12-01T13:46:43.362Z,99835.25
2023-12-01T13:49:12.607Z,99837.75
2023-12-01T13:51:40.627Z,99835.91
2023-12-01T13:54:11.993Z,99837.91
2023-12-01T13:56:40.678Z,99836.81
2023-12-01T13:59:08.563Z,99838.91
2023-12-01T14:01:36.583Z,99835.25
2023-12-01T14:04:06.366Z,99827.47
2023-12-01T14:06:34.368Z,99832.50
2023-12-01T14:09:02.250Z,99838.59
2023-12-01T14:11:31.416Z,99831.75
2023-12-01T14:13:59.060Z,99836.81
2023-12-01T14:16:26.822Z,99832.25
2023-12-01T14:18:54.895Z,99828.31
2023-12-01T14:21:22.926Z,99835.63
2023-12-01T14:23:50.911Z,99809.53
2023-12-01T14:26:18.982Z,99835.53
2023-12-01T14:28:48.809Z,99832.94
2023-12-01T14:31:16.517Z,99830.16
2023-12-01T14:33:44.361Z,99833.09
2023-12-01T14:36:13.162Z,99841.97
2023-12-01T14:38:40.865Z,99837.81
2023-12-01T14:41:09.766Z,99839.84
2023-12-01T14:43:37.644Z,99723.88
2023-12-01T14:46:07.773Z,99850.66
2023-12-01T14:48:35.574Z,99847.78
2023-12-01T14:51:03.346Z,99843.56
2023-12-01T14:53:31.043Z,99844.28
2023-12-01T14:55:58.684Z,99849.69
2023-12-01T14:58:26.380Z,99849.78
2023-12-01T15:00:54.694Z,99860.44
2023-12-01T15:03:24.209Z,99845.34
2023-12-01T15:05:51.917Z,99864.25
2023-12-01T15:08:19.632Z,99862.53
2023-12-01T15:10:47.334Z,99865.13
2023-12-01T15:13:15.000Z,99870.53
2023-12-01T15:15:42.838Z,99871.94
2023-12-01T15:18:10.776Z,99878.19
2023-12-01T15:20:39.923Z,99857.44
2023-12-01T15:23:07.590Z,99879.53
2023-12-01T15:25:37.266Z,99867.81
2023-12-01T15:28:05.012Z,99868.53
2023-12-01T15:30:34.004Z,99871.59
2023-12-01T15:33:03.169Z,99874.44
2023-12-01T15:35:30.997Z,99875.47
2023-12-01T15:38:00.027Z,99876.38
2023-12-01T15:40:28.179Z,99879.13
2023-12-01T15:42:55.845Z,99878.25
2023-12-01T15:45:23.608Z,99879.22
2023-12-01T15:47:51.403Z,99883.66
2023-12-01T15:50:19.086Z,99886.25
2023-12-01T15:52:46.822Z,99888.91
2023-12-01T15:55:15.830Z,99888.03
2023-12-01T15:57:43.590Z,99883.59
2023-12-01T16:00:13.145Z,99893.38
2023-12-01T16:02:40.797Z,99883.59
2023-12-01T16:05:09.270Z,99881.09
2023-12-01T16:07:36.950Z,99887.22
2023-12-01T16:10:04.835Z,99875.03
2023-12-01T16:12:34.084Z,99883.59
2023-12-01T16:15:09.064Z,99890.97
2023-12-01T16:17:43.612Z,99883.03
2023-12-01T16:20:12.005Z,99881.31
2023-12-01T16:22:39.770Z,99886.81
2023-12-01T16:25:09.269Z,99886.69
2023-12-01T16:27:38.279Z,99892.91
2023-12-01T16:30:07.647Z,99885.97
2023-12-01T16:32:35.646Z,99895.59
2023-12-01T16:35:05.936Z,99899.00
2023-12-01T16:37:34.810Z,99893.50
2023-12-01T16:40:02.554Z,99905.56
2023-12-01T16:42:30.277Z,99903.69
2023-12-01T16:44:59.406Z,99900.13
2023-12-01T16:47:27.088Z,99907.16
2023-12-01T16:49:54.787Z,99917.56
2023-12-01T16:52:23.228Z,99921.19
2023-12-01T16:54:51.693Z,99893.59
2023-12-01T16:57:19.754Z,99922.91
2023-12-01T16:59:48.236Z,99915.22
2023-12-01T17:02:17.422Z,99921.44
2023-12-01T17:04:45.229Z,99922.34
2023-12-01T17:07:12.928Z,99914.47
2023-12-01T17:09:42.042Z,99918.91
2023-12-01T17:12:10.144Z,99922.56
2023-12-01T17:14:38.957Z,99924.13
2023-12-01T17:17:11.324Z,99933.06
2023-12-01T17:19:40.339Z,99946.16
2023-12-01T17:22:08.023Z,99942.81
2023-12-01T17:24:35.715Z,99927.00
2023-12-01T17:27:03.380Z,99930.47
2023-12-01T17:29:33.753Z,99930.34
2023-12-01T17:32:01.762Z,99926.09
2023-12-01T17:34:29.512Z,99935.69
2023-12-01T17:36:58.552Z,99933.91
2023-12-01T17:39:26.591Z,99932.97
2023-12-01T17:41:54.324Z,99919.13
2023-12-01T17:44:22.000Z,99942.72
2023-12-01T17:46:50.444Z,99902.81
2023-12-01T17:49:18.185Z,99926.03
2023-12-01T17:51:45.884Z,99926.03
2023-12-01T17:54:15.788Z,99919.88
2023-12-01T17:56:43.526Z,99925.16
2023-12-01T17:59:11.166Z,99920.56
2023-12-01T18:01:42.145Z,99909.03
2023-12-01T18:04:09.987Z,99932.06
2023-12-01T18:06:37.826Z,99931.63
2023-12-01T18:09:05.530Z,99923.00
2023-12-01T18:11:34.807Z,99930.75
2023-12-01T18:14:03.653Z,99888.44
2023-12-01T18:16:31.436Z,99935.19
2023-12-01T18:18:59.213Z,99933.41
2023-12-01T18:21:27.064Z,99938.63
2023-12-01T18:23:56.140Z,99932.38
2023-12-01T18:26:23.888Z,99930.03
2023-12-01T18:28:52.918Z,99935.28
2023-12-01T18:31:20.656Z,99938.72
2023-12-01T18:33:48.450Z,99945.84
2023-12-01T18:36:16.220Z,99945.81
2023-12-01T18:38:43.964Z,99951.09
2023-12-01T18:41:11.702Z,99951.28
2023-12-01T18:43:39.378Z,99957.47
2023-12-01T18:46:09.109Z,99960.13
2023-12-01T18:48:36.904Z,99957.78
2023-12-01T18:51:08.218Z,99955.06
2023-12-01T18:53:36.036Z,99963.75
2023-12-01T18:56:03.706Z,99960.28
2023-12-01T18:58:31.538Z,99968.19
2023-12-01T19:00:59.275Z,99959.22
2023-12-01T19:03:28.522Z,99974.38
2023-12-01T19:05:56.453Z,99972.69
2023-12-01T19:08:24.480Z,99968.38
2023-12-01T19:10:53.012Z,99969.31
2023-12-01T19:13:20.928Z,99963.84
2023-12-01T19:15:48.625Z,99968.31
2023-12-01T19:18:16.382Z,99970.09
2023-12-01T19:20:45.591Z,99966.78
2023-12-01T19:23:13.248Z,99963.06
2023-12-01T19:25:41.473Z,99958.06
2023-12-01T19:28:09.182Z,99970.09
2023-12-01T19:30:36.848Z,99977.16
2023-12-01T19:33:04.959Z,99972.88
2023-12-01T19:35:32.736Z,99967.44
2023-12-01T19:38:01.804Z,99972.69
2023-12-01T19:40:30.713Z,99972.66
2023-12-01T19:42:58.443Z,99972.69
2023-12-01T19:45:26.149Z,99966.72
2023-12-01T19:47:53.917Z,99972.78
2023-12-01T19:50:21.627Z,99972.66
2023-12-01T19:52:49.283Z,99983.25
2023-12-01T19:55:18.421Z,99978.88
2023-12-01T19:57:46.283Z,99971.91
2023-12-01T20:00:15.346Z,99958.78
2023-12-01T20:02:43.062Z,99927.75
2023-12-01T20:05:11.536Z,99969.56
2023-12-01T20:07:39.227Z,99971.09
2023-12-01T20:10:07.561Z,99980.75
2023-12-01T20:12:39.407Z,99977.19
2023-12-01T20:15:08.416Z,99989.41
2023-12-01T20:17:36.276Z,99972.84
2023-12-01T20:20:05.954Z,99983.25
2023-12-01T20:22:33.657Z,99983.22
2023-12-01T20:25:01.444Z,99982.34
2023-12-01T20:27:29.159Z,99974.66
2023-12-01T20:29:58.940Z,99983.22
2023-12-01T20:32:26.664Z,99982.41
2023-12-01T20:34:54.332Z,99983.22
2023-12-01T20:37:22.251Z,99977.16
2023-12-01T20:39:49.922Z,99973.56
2023-12-01T20:42:17.620Z,99980.63
2023-12-01T20:44:45.305Z,99972.69
2023-12-01T20:47:14.396Z,99975.25
2023-12-01T20:49:43.542Z,99978.84
2023-12-01T20:52:11.554Z,99977.88
2023-12-01T20:54:39.771Z,99980.47
2023-12-01T20:57:07.727Z,99897.69
2023-12-01T20:59:35.748Z,99992.16
2023-12-01T21:02:03.979Z,99990.19
2023-12-01T21:04:33.545Z,99986.63
2023-12-01T21:07:01.309Z,99984.72
2023-12-01T21:09:29.062Z,99982.19
2023-12-01T21:11:56.781Z,99982.31
2023-12-01T21:14:24.522Z,99988.50
2023-12-01T21:16:52.177Z,99992.94
2023-12-01T21:19:19.939Z,99996.34
2023-12-01T21:21:49.123Z,99991.28
2023-12-01T21:24:16.796Z,99988.81
2023-12-01T21:26:44.867Z,99989.50
2023-12-01T21:29:12.542Z,99993.88
2023-12-01T21:31:40.217Z,99985.00
2023-12-01T21:34:07.996Z,99962.94
2023-12-01T21:36:35.769Z,99995.41
2023-12-01T21:39:05.179Z,99986.78
2023-12-01T21:41:32.829Z,99994.84
2023-12-01T21:44:01.332Z,99998.31
2023-12-01T21:46:29.039Z,99998.34
2023-12-01T21:48:56.835Z,99995.06
2023-12-01T21:51:24.622Z,100005.19
2023-12-01T21:53:52.314Z,100011.38
2023-12-01T21:56:21.371Z,100008.78
2023-12-01T21:58:49.056Z,100010.66
2023-12-01T22:01:17.822Z,100007.09
2023-12-01T22:03:45.540Z,100006.84
2023-12-01T22:06:13.349Z,100011.22
2023-12-01T22:08:41.311Z,99967.38
2023-12-01T22:11:09.411Z,100020.31
2023-12-01T22:13:38.448Z,100014.94
2023-12-01T22:16:06.732Z,100012.31
2023-12-01T22:18:34.536Z,100023.69
2023-12-01T22:21:03.269Z,100022.09
2023-12-01T22:23:30.964Z,100021.06
2023-12-01T22:25:58.646Z,100023.88
2023-12-01T22:28:26.322Z,100023.75
2023-12-01T22:30:55.359Z,100013.44
2023-12-01T22:33:23.090Z,100013.25
2023-12-01T22:35:50.849Z,100014.91
2023-12-01T22:38:19.257Z,100017.72
2023-12-01T22:40:46.942Z,100018.50
2023-12-01T22:43:14.613Z,100018.59
2023-12-01T22:45:42.284Z,100016.75
2023-12-01T22:48:11.439Z,100023.75
2023-12-01T22:50:39.161Z,100022.00
2023-12-01T22:53:06.799Z,100023.88
2023-12-01T22:55:34.475Z,100022.06
2023-12-01T22:58:02.092Z,100021.22
2023-12-01T23:00:32.063Z,100023.81
2023-12-01T23:03:01.138Z,100028.34
2023-12-01T23:05:30.517Z,100026.44
2023-12-01T23:07:58.415Z,100022.09
2023-12-01T23:10:26.152Z,100030.94
2023-12-01T23:12:53.849Z,100030.94
2023-12-01T23:15:21.790Z,100029.44
2023-12-01T23:17:57.769Z,100031.06
2023-12-01T23:20:27.345Z,100025.88
2023-12-01T23:22:56.734Z,100033.63
2023-12-01T23:25:24.762Z,100028.44
2023-12-01T23:27:52.610Z,100032.81
2023-12-01T23:30:22.771Z,100029.28
2023-12-01T23:32:50.655Z,100030.25
2023-12-01T23:35:18.396Z,100033.72
2023-12-01T23:37:46.067Z,100037.25
2023-12-01T23:40:15.234Z,100039.78
2023-12-01T23:42:42.872Z,100035.34
2023-12-01T23:45:11.062Z,100041.47
2023-12-01T23:47:38.798Z,100033.97
2023-12-01T23:50:07.004Z,100032.91
2023-12-01T23:52:34.645Z,100030.25
2023-12-01T23:55:02.662Z,100032.81
2023-12-01T23:57:31.882Z,100030.94
2023-12-01T23:59:59.648Z,100033.63
